sensor_id;sensor_type;location;lat;lon;timestamp;temperature;humidity
31975;DHT22;18500;43.618;1.474;2023-07-29T00:01:50;21.30;1.00
31975;DHT22;18500;43.618;1.474;2023-07-29T00:04:16;21.30;1.00
31975;DHT22;18500;43.618;1.474;2023-07-29T00:06:42;21.20;1.00
31975;DHT22;18500;43.618;1.474;2023-07-29T00:09:07;21.20;1.00
31975;DHT22;18500;43.618;1.474;2023-07-29T00:11:33;21.20;1.00
31975;DHT22;18500;43.618;1.474;2023-07-29T00:14:01;21.10;1.00
31975;DHT22;18500;43.618;1.474;2023-07-29T00:16:27;21.10;1.00
31975;DHT22;18500;43.618;1.474;2023-07-29T00:18:53;21.10;1.00
31975;DHT22;18500;43.618;1.474;2023-07-29T00:21:18;21.10;1.00
31975;DHT22;18500;43.618;1.474;2023-07-29T00:23:44;21.00;1.00
31975;DHT22;18500;43.618;1.474;2023-07-29T00:26:10;21.00;1.00
31975;DHT22;18500;43.618;1.474;2023-07-29T00:28:35;20.90;1.00
31975;DHT22;18500;43.618;1.474;2023-07-29T00:31:01;21.00;1.00
31975;DHT22;18500;43.618;1.474;2023-07-29T00:33:27;20.90;1.00
31975;DHT22;18500;43.618;1.474;2023-07-29T00:35:53;20.90;1.00
31975;DHT22;18500;43.618;1.474;2023-07-29T00:38:18;20.90;1.00
31975;DHT22;18500;43.618;1.474;2023-07-29T00:40:44;20.80;1.00
31975;DHT22;18500;43.618;1.474;2023-07-29T00:43:09;20.80;1.00
31975;DHT22;18500;43.618;1.474;2023-07-29T00:45:35;20.80;1.00
31975;DHT22;18500;43.618;1.474;2023-07-29T00:48:01;20.70;1.00
31975;DHT22;18500;43.618;1.474;2023-07-29T00:50:27;20.70;1.00
31975;DHT22;18500;43.618;1.474;2023-07-29T00:52:54;20.60;1.00
31975;DHT22;18500;43.618;1.474;2023-07-29T00:55:19;20.60;1.00
31975;DHT22;18500;43.618;1.474;2023-07-29T00:57:45;20.60;1.00
31975;DHT22;18500;43.618;1.474;2023-07-29T01:00:14;20.50;1.00
31975;DHT22;18500;43.618;1.474;2023-07-29T01:02:39;20.50;1.00
31975;DHT22;18500;43.618;1.474;2023-07-29T01:05:05;20.40;1.00
31975;DHT22;18500;43.618;1.474;2023-07-29T01:07:49;20.40;1.00
31975;DHT22;18500;43.618;1.474;2023-07-29T01:10:24;20.40;1.00
31975;DHT22;18500;43.618;1.474;2023-07-29T01:15:33;20.40;1.00
31975;DHT22;18500;43.618;1.474;2023-07-29T01:18:05;20.30;1.00
31975;DHT22;18500;43.618;1.474;2023-07-29T01:20:32;20.30;1.00
31975;DHT22;18500;43.618;1.474;2023-07-29T01:22:58;20.20;1.00
31975;DHT22;18500;43.618;1.474;2023-07-29T01:25:24;20.20;1.00
31975;DHT22;18500;43.618;1.474;2023-07-29T01:27:49;20.20;1.00
31975;DHT22;18500;43.618;1.474;2023-07-29T01:30:17;20.10;1.00
31975;DHT22;18500;43.618;1.474;2023-07-29T01:32:43;20.10;1.00
31975;DHT22;18500;43.618;1.474;2023-07-29T01:37:39;20.10;1.00
31975;DHT22;18500;43.618;1.474;2023-07-29T01:40:05;20.00;1.00
31975;DHT22;18500;43.618;1.474;2023-07-29T01:42:33;20.00;1.00
31975;DHT22;18500;43.618;1.474;2023-07-29T01:44:59;20.00;1.00
31975;DHT22;18500;43.618;1.474;2023-07-29T01:47:25;20.00;1.00
31975;DHT22;18500;43.618;1.474;2023-07-29T01:49:50;20.00;1.00
31975;DHT22;18500;43.618;1.474;2023-07-29T01:52:16;20.00;1.00
31975;DHT22;18500;43.618;1.474;2023-07-29T01:54:42;20.00;1.00
31975;DHT22;18500;43.618;1.474;2023-07-29T01:57:07;20.00;1.00
31975;DHT22;18500;43.618;1.474;2023-07-29T01:59:33;19.90;1.00
31975;DHT22;18500;43.618;1.474;2023-07-29T02:01:58;19.90;1.00
31975;DHT22;18500;43.618;1.474;2023-07-29T02:04:24;19.90;1.00
31975;DHT22;18500;43.618;1.474;2023-07-29T02:06:49;19.90;1.00
31975;DHT22;18500;43.618;1.474;2023-07-29T02:09:15;19.80;1.00
31975;DHT22;18500;43.618;1.474;2023-07-29T02:11:40;19.90;1.00
31975;DHT22;18500;43.618;1.474;2023-07-29T02:14:06;19.90;1.00
31975;DHT22;18500;43.618;1.474;2023-07-29T02:16:31;19.80;1.00
31975;DHT22;18500;43.618;1.474;2023-07-29T02:18:58;19.80;1.00
31975;DHT22;18500;43.618;1.474;2023-07-29T02:21:23;19.80;1.00
31975;DHT22;18500;43.618;1.474;2023-07-29T02:23:49;19.80;1.00
31975;DHT22;18500;43.618;1.474;2023-07-29T02:26:15;19.70;1.00
31975;DHT22;18500;43.618;1.474;2023-07-29T02:28:41;19.70;1.00
31975;DHT22;18500;43.618;1.474;2023-07-29T02:33:36;19.60;1.00
31975;DHT22;18500;43.618;1.474;2023-07-29T02:36:01;19.60;1.00
31975;DHT22;18500;43.618;1.474;2023-07-29T02:38:27;19.60;1.00
31975;DHT22;18500;43.618;1.474;2023-07-29T02:40:52;19.60;1.00
31975;DHT22;18500;43.618;1.474;2023-07-29T02:43:18;19.50;1.00
31975;DHT22;18500;43.618;1.474;2023-07-29T02:45:43;19.60;1.00
31975;DHT22;18500;43.618;1.474;2023-07-29T02:48:09;19.50;1.00
31975;DHT22;18500;43.618;1.474;2023-07-29T02:50:34;19.60;1.00
31975;DHT22;18500;43.618;1.474;2023-07-29T02:53:00;19.50;1.00
31975;DHT22;18500;43.618;1.474;2023-07-29T02:55:26;19.50;1.00
31975;DHT22;18500;43.618;1.474;2023-07-29T02:57:52;19.50;1.00
31975;DHT22;18500;43.618;1.474;2023-07-29T03:00:17;19.40;1.00
31975;DHT22;18500;43.618;1.474;2023-07-29T03:02:43;19.50;1.00
31975;DHT22;18500;43.618;1.474;2023-07-29T03:05:08;19.50;1.00
31975;DHT22;18500;43.618;1.474;2023-07-29T03:07:34;19.50;1.00
31975;DHT22;18500;43.618;1.474;2023-07-29T03:09:59;19.40;1.00
31975;DHT22;18500;43.618;1.474;2023-07-29T03:12:25;19.40;1.00
31975;DHT22;18500;43.618;1.474;2023-07-29T03:14:51;19.40;1.00
31975;DHT22;18500;43.618;1.474;2023-07-29T03:17:17;19.40;1.00
31975;DHT22;18500;43.618;1.474;2023-07-29T03:19:42;19.40;1.00
31975;DHT22;18500;43.618;1.474;2023-07-29T03:22:08;19.40;1.00
31975;DHT22;18500;43.618;1.474;2023-07-29T03:24:33;19.40;1.00
31975;DHT22;18500;43.618;1.474;2023-07-29T03:26:59;19.40;1.00
31975;DHT22;18500;43.618;1.474;2023-07-29T03:29:24;19.40;1.00
31975;DHT22;18500;43.618;1.474;2023-07-29T03:31:50;19.30;1.00
31975;DHT22;18500;43.618;1.474;2023-07-29T03:34:15;19.30;1.00
31975;DHT22;18500;43.618;1.474;2023-07-29T03:36:41;19.30;1.00
31975;DHT22;18500;43.618;1.474;2023-07-29T03:39:07;19.30;1.00
31975;DHT22;18500;43.618;1.474;2023-07-29T03:41:33;19.30;1.00
31975;DHT22;18500;43.618;1.474;2023-07-29T03:43:58;19.20;1.00
31975;DHT22;18500;43.618;1.474;2023-07-29T03:46:24;19.20;1.00
31975;DHT22;18500;43.618;1.474;2023-07-29T03:48:50;19.20;1.00
31975;DHT22;18500;43.618;1.474;2023-07-29T03:51:15;19.20;1.00
31975;DHT22;18500;43.618;1.474;2023-07-29T03:53:41;19.10;1.00
31975;DHT22;18500;43.618;1.474;2023-07-29T03:56:06;19.10;1.00
31975;DHT22;18500;43.618;1.474;2023-07-29T03:58:32;19.10;1.00
31975;DHT22;18500;43.618;1.474;2023-07-29T04:00:58;19.10;1.00
31975;DHT22;18500;43.618;1.474;2023-07-29T04:03:23;19.10;1.00
31975;DHT22;18500;43.618;1.474;2023-07-29T04:05:49;19.10;1.00
31975;DHT22;18500;43.618;1.474;2023-07-29T04:08:14;19.00;1.00
31975;DHT22;18500;43.618;1.474;2023-07-29T04:10:40;19.10;1.00
31975;DHT22;18500;43.618;1.474;2023-07-29T04:13:05;19.00;1.00
31975;DHT22;18500;43.618;1.474;2023-07-29T04:15:31;19.00;1.00
31975;DHT22;18500;43.618;1.474;2023-07-29T04:17:56;19.10;1.00
31975;DHT22;18500;43.618;1.474;2023-07-29T04:20:22;19.00;1.00
31975;DHT22;18500;43.618;1.474;2023-07-29T04:22:47;19.00;1.00
31975;DHT22;18500;43.618;1.474;2023-07-29T04:25:13;19.00;1.00
31975;DHT22;18500;43.618;1.474;2023-07-29T04:27:39;19.00;1.00
31975;DHT22;18500;43.618;1.474;2023-07-29T04:30:04;19.00;1.00
31975;DHT22;18500;43.618;1.474;2023-07-29T04:32:30;19.00;1.00
31975;DHT22;18500;43.618;1.474;2023-07-29T04:34:56;19.00;1.00
31975;DHT22;18500;43.618;1.474;2023-07-29T04:37:21;18.90;1.00
31975;DHT22;18500;43.618;1.474;2023-07-29T04:39:47;18.90;1.00
31975;DHT22;18500;43.618;1.474;2023-07-29T04:42:12;18.90;1.00
31975;DHT22;18500;43.618;1.474;2023-07-29T04:44:38;18.90;1.00
31975;DHT22;18500;43.618;1.474;2023-07-29T04:47:03;18.80;1.00
31975;DHT22;18500;43.618;1.474;2023-07-29T04:49:29;18.80;1.00
31975;DHT22;18500;43.618;1.474;2023-07-29T04:51:54;18.80;1.00
31975;DHT22;18500;43.618;1.474;2023-07-29T04:54:20;18.80;1.00
31975;DHT22;18500;43.618;1.474;2023-07-29T04:56:46;18.80;1.00
31975;DHT22;18500;43.618;1.474;2023-07-29T04:59:12;18.80;1.00
31975;DHT22;18500;43.618;1.474;2023-07-29T05:01:38;18.80;1.00
31975;DHT22;18500;43.618;1.474;2023-07-29T05:04:04;18.80;1.00
31975;DHT22;18500;43.618;1.474;2023-07-29T05:06:29;18.80;1.00
31975;DHT22;18500;43.618;1.474;2023-07-29T05:08:57;18.90;1.00
31975;DHT22;18500;43.618;1.474;2023-07-29T05:11:22;18.90;1.00
31975;DHT22;18500;43.618;1.474;2023-07-29T05:13:48;18.90;1.00
31975;DHT22;18500;43.618;1.474;2023-07-29T05:16:14;18.90;1.00
31975;DHT22;18500;43.618;1.474;2023-07-29T05:18:39;18.90;1.00
31975;DHT22;18500;43.618;1.474;2023-07-29T05:21:05;19.00;1.00
31975;DHT22;18500;43.618;1.474;2023-07-29T05:23:31;18.90;1.00
31975;DHT22;18500;43.618;1.474;2023-07-29T05:25:56;19.00;1.00
31975;DHT22;18500;43.618;1.474;2023-07-29T05:28:22;19.00;1.00
31975;DHT22;18500;43.618;1.474;2023-07-29T05:30:47;19.00;1.00
31975;DHT22;18500;43.618;1.474;2023-07-29T05:33:13;19.10;1.00
31975;DHT22;18500;43.618;1.474;2023-07-29T05:35:38;19.10;1.00
31975;DHT22;18500;43.618;1.474;2023-07-29T05:38:04;19.20;1.00
31975;DHT22;18500;43.618;1.474;2023-07-29T05:40:31;19.20;1.00
31975;DHT22;18500;43.618;1.474;2023-07-29T05:42:57;19.30;1.00
31975;DHT22;18500;43.618;1.474;2023-07-29T05:45:23;19.30;1.00
31975;DHT22;18500;43.618;1.474;2023-07-29T05:47:48;19.30;1.00
31975;DHT22;18500;43.618;1.474;2023-07-29T05:50:14;19.40;1.00
31975;DHT22;18500;43.618;1.474;2023-07-29T05:52:40;19.50;1.00
31975;DHT22;18500;43.618;1.474;2023-07-29T05:55:05;19.50;1.00
31975;DHT22;18500;43.618;1.474;2023-07-29T05:57:31;19.50;1.00
31975;DHT22;18500;43.618;1.474;2023-07-29T05:59:56;19.60;1.00
31975;DHT22;18500;43.618;1.474;2023-07-29T06:02:22;19.60;1.00
31975;DHT22;18500;43.618;1.474;2023-07-29T06:04:48;19.70;1.00
31975;DHT22;18500;43.618;1.474;2023-07-29T06:07:13;19.70;1.00
31975;DHT22;18500;43.618;1.474;2023-07-29T06:09:39;19.70;1.00
31975;DHT22;18500;43.618;1.474;2023-07-29T06:12:05;19.80;1.00
31975;DHT22;18500;43.618;1.474;2023-07-29T06:14:31;19.90;1.00
31975;DHT22;18500;43.618;1.474;2023-07-29T06:16:56;19.90;1.00
31975;DHT22;18500;43.618;1.474;2023-07-29T06:19:22;19.90;1.00
31975;DHT22;18500;43.618;1.474;2023-07-29T06:21:48;20.00;1.00
31975;DHT22;18500;43.618;1.474;2023-07-29T06:24:13;20.10;1.00
31975;DHT22;18500;43.618;1.474;2023-07-29T06:26:39;20.10;1.00
31975;DHT22;18500;43.618;1.474;2023-07-29T06:29:04;20.10;1.00
31975;DHT22;18500;43.618;1.474;2023-07-29T06:31:30;20.20;1.00
31975;DHT22;18500;43.618;1.474;2023-07-29T06:33:55;20.30;1.00
31975;DHT22;18500;43.618;1.474;2023-07-29T06:36:21;20.40;1.00
31975;DHT22;18500;43.618;1.474;2023-07-29T06:38:47;20.40;1.00
31975;DHT22;18500;43.618;1.474;2023-07-29T06:41:12;20.50;1.00
31975;DHT22;18500;43.618;1.474;2023-07-29T06:43:38;20.50;1.00
31975;DHT22;18500;43.618;1.474;2023-07-29T06:46:03;20.60;1.00
31975;DHT22;18500;43.618;1.474;2023-07-29T06:48:29;20.70;1.00
31975;DHT22;18500;43.618;1.474;2023-07-29T06:50:54;20.70;1.00
31975;DHT22;18500;43.618;1.474;2023-07-29T06:53:20;20.80;1.00
31975;DHT22;18500;43.618;1.474;2023-07-29T06:55:46;20.90;1.00
31975;DHT22;18500;43.618;1.474;2023-07-29T06:58:11;20.90;1.00
31975;DHT22;18500;43.618;1.474;2023-07-29T07:00:37;20.90;1.00
31975;DHT22;18500;43.618;1.474;2023-07-29T07:03:03;21.00;1.00
31975;DHT22;18500;43.618;1.474;2023-07-29T07:05:28;21.10;1.00
31975;DHT22;18500;43.618;1.474;2023-07-29T07:07:53;21.10;1.00
31975;DHT22;18500;43.618;1.474;2023-07-29T07:10:19;21.20;1.00
31975;DHT22;18500;43.618;1.474;2023-07-29T07:12:45;21.40;1.00
31975;DHT22;18500;43.618;1.474;2023-07-29T07:15:10;21.30;1.00
31975;DHT22;18500;43.618;1.474;2023-07-29T07:17:36;21.40;1.00
31975;DHT22;18500;43.618;1.474;2023-07-29T07:20:01;21.50;1.00
31975;DHT22;18500;43.618;1.474;2023-07-29T07:22:27;21.50;1.00
31975;DHT22;18500;43.618;1.474;2023-07-29T07:24:52;21.60;1.00
31975;DHT22;18500;43.618;1.474;2023-07-29T07:27:18;21.60;1.00
31975;DHT22;18500;43.618;1.474;2023-07-29T07:29:43;21.70;1.00
31975;DHT22;18500;43.618;1.474;2023-07-29T07:32:09;21.70;1.00
31975;DHT22;18500;43.618;1.474;2023-07-29T07:34:34;21.80;1.00
31975;DHT22;18500;43.618;1.474;2023-07-29T07:37:00;21.80;1.00
31975;DHT22;18500;43.618;1.474;2023-07-29T07:39:26;21.90;1.00
31975;DHT22;18500;43.618;1.474;2023-07-29T07:41:51;21.90;1.00
31975;DHT22;18500;43.618;1.474;2023-07-29T07:44:17;22.00;1.00
31975;DHT22;18500;43.618;1.474;2023-07-29T07:46:45;22.10;1.00
31975;DHT22;18500;43.618;1.474;2023-07-29T07:49:10;22.20;1.00
31975;DHT22;18500;43.618;1.474;2023-07-29T07:51:36;22.30;1.00
31975;DHT22;18500;43.618;1.474;2023-07-29T07:54:01;22.40;1.00
31975;DHT22;18500;43.618;1.474;2023-07-29T07:56:27;22.50;1.00
31975;DHT22;18500;43.618;1.474;2023-07-29T07:58:52;22.50;1.00
31975;DHT22;18500;43.618;1.474;2023-07-29T08:01:18;22.60;1.00
31975;DHT22;18500;43.618;1.474;2023-07-29T08:03:43;22.70;1.00
31975;DHT22;18500;43.618;1.474;2023-07-29T08:06:09;22.70;1.00
31975;DHT22;18500;43.618;1.474;2023-07-29T08:08:34;22.90;1.00
31975;DHT22;18500;43.618;1.474;2023-07-29T08:11:00;22.90;1.00
31975;DHT22;18500;43.618;1.474;2023-07-29T08:13:25;23.00;1.00
31975;DHT22;18500;43.618;1.474;2023-07-29T08:15:51;23.10;1.00
31975;DHT22;18500;43.618;1.474;2023-07-29T08:18:17;23.10;1.00
31975;DHT22;18500;43.618;1.474;2023-07-29T08:20:58;23.10;1.00
31975;DHT22;18500;43.618;1.474;2023-07-29T08:23:27;23.40;1.00
31975;DHT22;18500;43.618;1.474;2023-07-29T08:25:53;23.40;1.00
31975;DHT22;18500;43.618;1.474;2023-07-29T08:28:19;23.60;1.00
31975;DHT22;18500;43.618;1.474;2023-07-29T08:30:45;23.60;1.00
31975;DHT22;18500;43.618;1.474;2023-07-29T08:33:10;23.60;1.00
31975;DHT22;18500;43.618;1.474;2023-07-29T08:35:36;23.70;1.00
31975;DHT22;18500;43.618;1.474;2023-07-29T08:38:02;23.90;1.00
31975;DHT22;18500;43.618;1.474;2023-07-29T08:40:29;24.00;1.00
31975;DHT22;18500;43.618;1.474;2023-07-29T08:42:55;24.00;1.00
31975;DHT22;18500;43.618;1.474;2023-07-29T08:45:22;24.10;1.00
31975;DHT22;18500;43.618;1.474;2023-07-29T08:47:48;24.20;1.00
31975;DHT22;18500;43.618;1.474;2023-07-29T08:50:15;24.20;1.00
31975;DHT22;18500;43.618;1.474;2023-07-29T08:52:40;24.30;1.00
31975;DHT22;18500;43.618;1.474;2023-07-29T08:55:07;24.40;1.00
31975;DHT22;18500;43.618;1.474;2023-07-29T08:57:33;24.40;1.00
31975;DHT22;18500;43.618;1.474;2023-07-29T09:00:00;24.60;1.00
31975;DHT22;18500;43.618;1.474;2023-07-29T09:02:26;24.50;1.00
31975;DHT22;18500;43.618;1.474;2023-07-29T09:04:51;24.50;1.00
31975;DHT22;18500;43.618;1.474;2023-07-29T09:07:17;24.60;1.00
31975;DHT22;18500;43.618;1.474;2023-07-29T09:09:42;24.70;1.00
31975;DHT22;18500;43.618;1.474;2023-07-29T09:12:08;24.70;1.00
31975;DHT22;18500;43.618;1.474;2023-07-29T09:14:33;24.70;1.00
31975;DHT22;18500;43.618;1.474;2023-07-29T09:16:59;24.80;1.00
31975;DHT22;18500;43.618;1.474;2023-07-29T09:19:25;25.00;1.00
31975;DHT22;18500;43.618;1.474;2023-07-29T09:21:52;25.00;1.00
31975;DHT22;18500;43.618;1.474;2023-07-29T09:24:17;25.10;1.00
31975;DHT22;18500;43.618;1.474;2023-07-29T09:26:49;25.10;1.00
31975;DHT22;18500;43.618;1.474;2023-07-29T09:29:15;25.20;1.00
31975;DHT22;18500;43.618;1.474;2023-07-29T09:31:41;25.30;1.00
31975;DHT22;18500;43.618;1.474;2023-07-29T09:34:06;25.20;1.00
31975;DHT22;18500;43.618;1.474;2023-07-29T09:36:33;25.50;1.00
31975;DHT22;18500;43.618;1.474;2023-07-29T09:38:59;25.60;1.00
31975;DHT22;18500;43.618;1.474;2023-07-29T09:41:28;25.60;1.00
31975;DHT22;18500;43.618;1.474;2023-07-29T09:44:00;25.60;1.00
31975;DHT22;18500;43.618;1.474;2023-07-29T09:46:32;25.60;1.00
31975;DHT22;18500;43.618;1.474;2023-07-29T09:48:58;25.70;1.00
31975;DHT22;18500;43.618;1.474;2023-07-29T09:51:24;25.80;1.00
31975;DHT22;18500;43.618;1.474;2023-07-29T09:53:50;26.00;1.00
31975;DHT22;18500;43.618;1.474;2023-07-29T09:56:15;26.00;1.00
31975;DHT22;18500;43.618;1.474;2023-07-29T09:58:44;26.00;1.00
31975;DHT22;18500;43.618;1.474;2023-07-29T10:01:11;26.00;1.00
31975;DHT22;18500;43.618;1.474;2023-07-29T10:03:36;26.10;1.00
31975;DHT22;18500;43.618;1.474;2023-07-29T10:06:02;26.30;1.00
31975;DHT22;18500;43.618;1.474;2023-07-29T10:08:31;26.50;1.00
31975;DHT22;18500;43.618;1.474;2023-07-29T10:11:01;26.60;1.00
31975;DHT22;18500;43.618;1.474;2023-07-29T10:13:26;26.70;1.00
31975;DHT22;18500;43.618;1.474;2023-07-29T10:15:55;27.00;1.00
31975;DHT22;18500;43.618;1.474;2023-07-29T10:18:24;27.30;1.00
31975;DHT22;18500;43.618;1.474;2023-07-29T10:20:50;27.00;1.00
31975;DHT22;18500;43.618;1.474;2023-07-29T10:23:16;27.10;1.00
31975;DHT22;18500;43.618;1.474;2023-07-29T10:25:43;27.30;1.00
31975;DHT22;18500;43.618;1.474;2023-07-29T10:28:12;27.40;1.00
31975;DHT22;18500;43.618;1.474;2023-07-29T10:30:38;27.60;1.00
31975;DHT22;18500;43.618;1.474;2023-07-29T10:33:04;27.70;1.00
31975;DHT22;18500;43.618;1.474;2023-07-29T10:35:30;27.70;1.00
31975;DHT22;18500;43.618;1.474;2023-07-29T10:37:57;27.70;1.00
31975;DHT22;18500;43.618;1.474;2023-07-29T10:40:22;27.70;1.00
31975;DHT22;18500;43.618;1.474;2023-07-29T10:43:09;27.70;1.00
31975;DHT22;18500;43.618;1.474;2023-07-29T10:45:41;27.70;1.00
31975;DHT22;18500;43.618;1.474;2023-07-29T10:53:44;28.30;1.00
31975;DHT22;18500;43.618;1.474;2023-07-29T10:56:09;28.60;1.00
31975;DHT22;18500;43.618;1.474;2023-07-29T10:58:35;28.90;1.00
31975;DHT22;18500;43.618;1.474;2023-07-29T11:01:00;28.90;1.00
31975;DHT22;18500;43.618;1.474;2023-07-29T11:03:26;29.10;1.00
31975;DHT22;18500;43.618;1.474;2023-07-29T11:05:54;29.10;1.00
31975;DHT22;18500;43.618;1.474;2023-07-29T11:13:30;29.10;1.00
31975;DHT22;18500;43.618;1.474;2023-07-29T11:15:57;29.00;1.00
31975;DHT22;18500;43.618;1.474;2023-07-29T11:18:34;29.10;1.00
31975;DHT22;18500;43.618;1.474;2023-07-29T11:21:00;29.20;1.00
31975;DHT22;18500;43.618;1.474;2023-07-29T11:23:32;29.00;1.00
31975;DHT22;18500;43.618;1.474;2023-07-29T11:25:58;28.90;1.00
31975;DHT22;18500;43.618;1.474;2023-07-29T11:28:24;29.00;1.00
31975;DHT22;18500;43.618;1.474;2023-07-29T11:30:50;29.20;1.00
31975;DHT22;18500;43.618;1.474;2023-07-29T11:33:20;29.20;1.00
31975;DHT22;18500;43.618;1.474;2023-07-29T11:35:46;29.40;1.00
31975;DHT22;18500;43.618;1.474;2023-07-29T11:38:14;29.30;1.00
31975;DHT22;18500;43.618;1.474;2023-07-29T11:40:40;29.50;1.00
31975;DHT22;18500;43.618;1.474;2023-07-29T11:43:05;29.20;1.00
31975;DHT22;18500;43.618;1.474;2023-07-29T11:45:30;29.10;1.00
31975;DHT22;18500;43.618;1.474;2023-07-29T11:47:56;29.20;1.00
31975;DHT22;18500;43.618;1.474;2023-07-29T11:50:21;29.20;1.00
31975;DHT22;18500;43.618;1.474;2023-07-29T11:52:47;29.20;1.00
31975;DHT22;18500;43.618;1.474;2023-07-29T11:55:14;29.70;1.00
31975;DHT22;18500;43.618;1.474;2023-07-29T11:57:41;29.70;1.00
31975;DHT22;18500;43.618;1.474;2023-07-29T12:00:07;29.90;1.00
31975;DHT22;18500;43.618;1.474;2023-07-29T12:02:42;30.30;1.00
31975;DHT22;18500;43.618;1.474;2023-07-29T12:05:09;30.50;1.00
31975;DHT22;18500;43.618;1.474;2023-07-29T12:07:35;30.60;1.00
31975;DHT22;18500;43.618;1.474;2023-07-29T12:10:01;30.80;1.00
31975;DHT22;18500;43.618;1.474;2023-07-29T12:12:28;30.60;1.00
31975;DHT22;18500;43.618;1.474;2023-07-29T12:14:54;30.80;1.00
31975;DHT22;18500;43.618;1.474;2023-07-29T12:17:20;30.60;1.00
31975;DHT22;18500;43.618;1.474;2023-07-29T12:19:45;30.60;1.00
31975;DHT22;18500;43.618;1.474;2023-07-29T12:22:11;30.90;1.00
31975;DHT22;18500;43.618;1.474;2023-07-29T12:24:37;31.00;1.00
31975;DHT22;18500;43.618;1.474;2023-07-29T12:27:03;31.00;1.00
31975;DHT22;18500;43.618;1.474;2023-07-29T12:29:29;31.40;1.00
31975;DHT22;18500;43.618;1.474;2023-07-29T12:31:58;31.10;1.00
31975;DHT22;18500;43.618;1.474;2023-07-29T12:34:25;31.10;1.00
31975;DHT22;18500;43.618;1.474;2023-07-29T12:36:51;31.30;1.00
31975;DHT22;18500;43.618;1.474;2023-07-29T12:39:17;31.40;1.00
31975;DHT22;18500;43.618;1.474;2023-07-29T12:41:43;32.20;1.00
31975;DHT22;18500;43.618;1.474;2023-07-29T12:44:08;37.00;99.90
31975;DHT22;18500;43.618;1.474;2023-07-29T12:46:34;40.80;99.90
31975;DHT22;18500;43.618;1.474;2023-07-29T12:48:59;42.20;99.90
31975;DHT22;18500;43.618;1.474;2023-07-29T12:51:25;42.90;99.90
31975;DHT22;18500;43.618;1.474;2023-07-29T12:53:50;40.80;99.90
31975;DHT22;18500;43.618;1.474;2023-07-29T12:56:16;43.20;99.90
31975;DHT22;18500;43.618;1.474;2023-07-29T12:58:41;40.10;99.90
31975;DHT22;18500;43.618;1.474;2023-07-29T13:01:07;36.60;99.90
31975;DHT22;18500;43.618;1.474;2023-07-29T13:03:32;34.50;99.90
31975;DHT22;18500;43.618;1.474;2023-07-29T13:05:58;40.50;99.90
31975;DHT22;18500;43.618;1.474;2023-07-29T13:08:23;40.10;99.90
31975;DHT22;18500;43.618;1.474;2023-07-29T13:10:49;40.00;99.90
31975;DHT22;18500;43.618;1.474;2023-07-29T13:13:14;42.90;99.90
31975;DHT22;18500;43.618;1.474;2023-07-29T13:15:40;42.10;99.90
31975;DHT22;18500;43.618;1.474;2023-07-29T13:18:06;39.40;99.90
31975;DHT22;18500;43.618;1.474;2023-07-29T13:20:31;38.80;99.90
31975;DHT22;18500;43.618;1.474;2023-07-29T13:22:59;35.60;99.90
31975;DHT22;18500;43.618;1.474;2023-07-29T13:25:24;37.10;99.90
31975;DHT22;18500;43.618;1.474;2023-07-29T13:27:49;42.80;99.90
31975;DHT22;18500;43.618;1.474;2023-07-29T13:30:15;44.40;99.90
31975;DHT22;18500;43.618;1.474;2023-07-29T13:32:40;42.50;99.90
31975;DHT22;18500;43.618;1.474;2023-07-29T13:35:06;41.70;99.90
31975;DHT22;18500;43.618;1.474;2023-07-29T13:37:32;43.10;99.90
31975;DHT22;18500;43.618;1.474;2023-07-29T13:39:57;41.00;99.90
31975;DHT22;18500;43.618;1.474;2023-07-29T13:42:23;38.80;99.90
31975;DHT22;18500;43.618;1.474;2023-07-29T13:44:48;36.20;99.90
31975;DHT22;18500;43.618;1.474;2023-07-29T13:47:14;34.60;99.90
31975;DHT22;18500;43.618;1.474;2023-07-29T13:49:40;34.00;99.90
31975;DHT22;18500;43.618;1.474;2023-07-29T13:52:05;33.60;99.90
31975;DHT22;18500;43.618;1.474;2023-07-29T13:54:31;32.90;99.90
31975;DHT22;18500;43.618;1.474;2023-07-29T13:56:56;33.40;99.90
31975;DHT22;18500;43.618;1.474;2023-07-29T13:59:22;36.00;99.90
31975;DHT22;18500;43.618;1.474;2023-07-29T14:01:47;39.80;99.90
31975;DHT22;18500;43.618;1.474;2023-07-29T14:04:13;42.60;99.90
31975;DHT22;18500;43.618;1.474;2023-07-29T14:06:38;43.50;99.90
31975;DHT22;18500;43.618;1.474;2023-07-29T14:09:04;43.40;99.90
31975;DHT22;18500;43.618;1.474;2023-07-29T14:11:29;41.90;99.90
31975;DHT22;18500;43.618;1.474;2023-07-29T14:13:55;36.90;99.90
31975;DHT22;18500;43.618;1.474;2023-07-29T14:16:20;34.20;99.90
31975;DHT22;18500;43.618;1.474;2023-07-29T14:18:46;32.80;99.90
31975;DHT22;18500;43.618;1.474;2023-07-29T14:21:11;36.50;99.90
31975;DHT22;18500;43.618;1.474;2023-07-29T14:23:37;40.60;99.90
31975;DHT22;18500;43.618;1.474;2023-07-29T14:26:02;38.10;99.90
31975;DHT22;18500;43.618;1.474;2023-07-29T14:28:28;36.20;99.90
31975;DHT22;18500;43.618;1.474;2023-07-29T14:30:54;35.90;99.90
31975;DHT22;18500;43.618;1.474;2023-07-29T14:33:19;35.10;99.90
31975;DHT22;18500;43.618;1.474;2023-07-29T14:35:45;34.20;99.90
31975;DHT22;18500;43.618;1.474;2023-07-29T14:38:10;32.80;99.90
31975;DHT22;18500;43.618;1.474;2023-07-29T14:40:36;32.40;99.90
31975;DHT22;18500;43.618;1.474;2023-07-29T14:43:01;32.20;99.90
31975;DHT22;18500;43.618;1.474;2023-07-29T14:45:27;32.60;99.90
31975;DHT22;18500;43.618;1.474;2023-07-29T14:47:52;32.50;99.90
31975;DHT22;18500;43.618;1.474;2023-07-29T14:50:18;32.60;99.90
31975;DHT22;18500;43.618;1.474;2023-07-29T14:52:43;32.10;99.90
31975;DHT22;18500;43.618;1.474;2023-07-29T14:55:09;31.80;99.90
31975;DHT22;18500;43.618;1.474;2023-07-29T14:57:34;31.60;99.90
31975;DHT22;18500;43.618;1.474;2023-07-29T15:00:00;31.70;99.90
31975;DHT22;18500;43.618;1.474;2023-07-29T15:02:25;31.90;99.90
31975;DHT22;18500;43.618;1.474;2023-07-29T15:04:51;32.40;99.90
31975;DHT22;18500;43.618;1.474;2023-07-29T15:07:16;32.90;99.90
31975;DHT22;18500;43.618;1.474;2023-07-29T15:09:42;33.30;99.90
31975;DHT22;18500;43.618;1.474;2023-07-29T15:12:07;33.60;99.90
31975;DHT22;18500;43.618;1.474;2023-07-29T15:14:33;33.50;99.90
31975;DHT22;18500;43.618;1.474;2023-07-29T15:16:58;33.10;99.90
31975;DHT22;18500;43.618;1.474;2023-07-29T15:19:24;32.90;99.90
31975;DHT22;18500;43.618;1.474;2023-07-29T15:21:50;31.90;99.90
31975;DHT22;18500;43.618;1.474;2023-07-29T15:24:15;31.20;99.90
31975;DHT22;18500;43.618;1.474;2023-07-29T15:26:41;31.40;99.90
31975;DHT22;18500;43.618;1.474;2023-07-29T15:29:07;31.20;99.90
31975;DHT22;18500;43.618;1.474;2023-07-29T15:31:33;31.20;99.90
31975;DHT22;18500;43.618;1.474;2023-07-29T15:33:59;31.40;99.90
31975;DHT22;18500;43.618;1.474;2023-07-29T15:36:24;31.60;99.90
31975;DHT22;18500;43.618;1.474;2023-07-29T15:38:50;31.60;99.90
31975;DHT22;18500;43.618;1.474;2023-07-29T15:41:15;31.40;99.90
31975;DHT22;18500;43.618;1.474;2023-07-29T15:43:41;31.40;99.90
31975;DHT22;18500;43.618;1.474;2023-07-29T15:46:06;31.30;99.90
31975;DHT22;18500;43.618;1.474;2023-07-29T15:48:32;31.20;99.90
31975;DHT22;18500;43.618;1.474;2023-07-29T15:50:57;31.00;99.90
31975;DHT22;18500;43.618;1.474;2023-07-29T15:53:23;30.80;99.90